sensor_id;sensor_type;location;lat;lon;timestamp;pressure;altitude;pressure_sealevel;temperature;humidity
21594;BME280;10959;51.328;7.322;2023-01-01T00:02:09;98269.50;;;16.03;60.25
21594;BME280;10959;51.328;7.322;2023-01-01T00:04:35;98270.22;;;15.94;60.24
21594;BME280;10959;51.328;7.322;2023-01-01T00:07:02;98269.72;;;16.00;60.26
21594;BME280;10959;51.328;7.322;2023-01-01T00:09:28;98264.28;;;16.00;59.85
21594;BME280;10959;51.328;7.322;2023-01-01T00:12:12;98277.78;;;16.02;59.48
21594;BME280;10959;51.328;7.322;2023-01-01T00:14:39;98266.03;;;16.01;59.65
21594;BME280;10959;51.328;7.322;2023-01-01T00:17:10;98253.81;;;16.07;59.88
21594;BME280;10959;51.328;7.322;2023-01-01T00:19:36;98279.13;;;16.08;59.94
21594;BME280;10959;51.328;7.322;2023-01-01T00:22:03;98264.91;;;16.04;58.64
21594;BME280;10959;51.328;7.322;2023-01-01T00:24:30;98279.34;;;16.04;60.19
21594;BME280;10959;51.328;7.322;2023-01-01T00:26:56;98265.31;;;15.99;59.22
21594;BME280;10959;51.328;7.322;2023-01-01T00:29:23;98287.75;;;16.01;59.11
21594;BME280;10959;51.328;7.322;2023-01-01T00:31:49;98267.25;;;16.09;59.32
21594;BME280;10959;51.328;7.322;2023-01-01T00:34:17;98270.72;;;16.11;59.58
21594;BME280;10959;51.328;7.322;2023-01-01T00:36:44;98269.50;;;16.03;59.41
21594;BME280;10959;51.328;7.322;2023-01-01T00:39:10;98269.00;;;16.10;58.14
21594;BME280;10959;51.328;7.322;2023-01-01T00:41:37;98262.06;;;16.05;57.71
21594;BME280;10959;51.328;7.322;2023-01-01T00:44:03;98259.59;;;16.14;58.27
21594;BME280;10959;51.328;7.322;2023-01-01T00:46:30;98274.16;;;16.13;57.81
21594;BME280;10959;51.328;7.322;2023-01-01T00:48:56;98274.41;;;16.10;58.72
21594;BME280;10959;51.328;7.322;2023-01-01T00:51:24;98270.97;;;15.96;59.14
21594;BME280;10959;51.328;7.322;2023-01-01T00:53:51;98271.47;;;16.01;59.13
21594;BME280;10959;51.328;7.322;2023-01-01T00:56:17;98279.59;;;16.01;58.09
21594;BME280;10959;51.328;7.322;2023-01-01T00:58:43;98280.84;;;15.97;57.83
21594;BME280;10959;51.328;7.322;2023-01-01T01:01:10;98280.34;;;16.03;57.78
21594;BME280;10959;51.328;7.322;2023-01-01T01:03:37;98288.00;;;15.98;58.31
21594;BME280;10959;51.328;7.322;2023-01-01T01:06:08;98292.19;;;15.91;58.00
21594;BME280;10959;51.328;7.322;2023-01-01T01:08:38;98291.69;;;15.86;57.47
21594;BME280;10959;51.328;7.322;2023-01-01T01:11:06;98278.13;;;15.97;57.26
21594;BME280;10959;51.328;7.322;2023-01-01T01:13:33;98278.00;;;15.99;56.85
21594;BME280;10959;51.328;7.322;2023-01-01T01:16:00;98275.78;;;15.93;56.49
21594;BME280;10959;51.328;7.322;2023-01-01T01:18:26;98283.06;;;15.92;56.80
21594;BME280;10959;51.328;7.322;2023-01-01T01:20:53;98283.53;;;15.86;56.19
21594;BME280;10959;51.328;7.322;2023-01-01T01:23:20;98291.34;;;15.91;56.31
21594;BME280;10959;51.328;7.322;2023-01-01T01:25:48;98291.94;;;15.94;56.34
21594;BME280;10959;51.328;7.322;2023-01-01T01:28:14;98289.59;;;15.89;56.54
21594;BME280;10959;51.328;7.322;2023-01-01T01:30:41;98281.97;;;15.83;55.84
21594;BME280;10959;51.328;7.322;2023-01-01T01:33:07;98288.25;;;15.84;55.66
21594;BME280;10959;51.328;7.322;2023-01-01T01:35:34;98296.75;;;15.79;56.22
21594;BME280;10959;51.328;7.322;2023-01-01T01:38:00;98294.91;;;15.80;56.97
21594;BME280;10959;51.328;7.322;2023-01-01T01:40:27;98301.19;;;15.80;56.75
21594;BME280;10959;51.328;7.322;2023-01-01T01:42:55;98308.47;;;15.80;56.10
21594;BME280;10959;51.328;7.322;2023-01-01T01:45:21;98307.94;;;15.75;56.50
21594;BME280;10959;51.328;7.322;2023-01-01T01:47:50;98313.00;;;15.68;55.14
21594;BME280;10959;51.328;7.322;2023-01-01T01:50:22;98308.44;;;15.68;55.72
21594;BME280;10959;51.328;7.322;2023-01-01T01:52:58;98308.91;;;15.62;56.47
21594;BME280;10959;51.328;7.322;2023-01-01T01:55:28;98306.22;;;15.73;56.63
21594;BME280;10959;51.328;7.322;2023-01-01T01:57:56;98315.19;;;15.63;56.05
21594;BME280;10959;51.328;7.322;2023-01-01T02:00:23;98319.78;;;15.62;56.72
21594;BME280;10959;51.328;7.322;2023-01-01T02:02:53;98316.09;;;15.63;55.70
21594;BME280;10959;51.328;7.322;2023-01-01T02:05:22;98314.09;;;15.65;55.81
21594;BME280;10959;51.328;7.322;2023-01-01T02:07:50;98329.91;;;15.71;56.11
21594;BME280;10959;51.328;7.322;2023-01-01T02:10:18;98335.69;;;15.67;55.97
21594;BME280;10959;51.328;7.322;2023-01-01T02:12:44;98322.38;;;15.64;55.79
21594;BME280;10959;51.328;7.322;2023-01-01T02:15:13;98334.31;;;15.61;55.10
21594;BME280;10959;51.328;7.322;2023-01-01T02:17:43;98335.06;;;15.52;55.46
21594;BME280;10959;51.328;7.322;2023-01-01T02:20:22;98339.22;;;15.45;56.16
21594;BME280;10959;51.328;7.322;2023-01-01T02:23:14;98330.31;;;15.43;55.35
21594;BME280;10959;51.328;7.322;2023-01-01T02:25:57;98333.88;;;15.43;55.95
21594;BME280;10959;51.328;7.322;2023-01-01T02:28:52;98317.19;;;15.25;56.88
21594;BME280;10959;51.328;7.322;2023-01-01T02:31:24;98312.53;;;15.38;56.10
21594;BME280;10959;51.328;7.322;2023-01-01T02:33:55;98327.31;;;15.34;54.55
21594;BME280;10959;51.328;7.322;2023-01-01T02:36:25;98322.81;;;15.46;55.46
21594;BME280;10959;51.328;7.322;2023-01-01T02:38:55;98325.41;;;15.48;55.03
21594;BME280;10959;51.328;7.322;2023-01-01T02:41:25;98322.47;;;15.51;54.85
21594;BME280;10959;51.328;7.322;2023-01-01T02:43:53;98328.13;;;15.48;55.89
21594;BME280;10959;51.328;7.322;2023-01-01T02:46:20;98314.19;;;15.52;56.35
21594;BME280;10959;51.328;7.322;2023-01-01T02:48:49;98344.16;;;15.51;55.96
21594;BME280;10959;51.328;7.322;2023-01-01T02:51:26;98322.91;;;15.33;55.36
21594;BME280;10959;51.328;7.322;2023-01-01T02:54:02;98323.16;;;15.42;56.01
21594;BME280;10959;51.328;7.322;2023-01-01T02:56:36;98329.84;;;15.37;56.38
21594;BME280;10959;51.328;7.322;2023-01-01T02:59:15;98339.38;;;15.30;56.02
21594;BME280;10959;51.328;7.322;2023-01-01T03:02:03;98320.66;;;15.27;55.15
21594;BME280;10959;51.328;7.322;2023-01-01T03:04:42;98329.06;;;15.35;55.87
21594;BME280;10959;51.328;7.322;2023-01-01T03:07:18;98334.50;;;15.35;55.95
21594;BME280;10959;51.328;7.322;2023-01-01T03:09:52;98343.59;;;15.34;56.13
21594;BME280;10959;51.328;7.322;2023-01-01T03:12:23;98339.91;;;15.35;56.08
21594;BME280;10959;51.328;7.322;2023-01-01T03:15:11;98340.63;;;15.26;55.98
21594;BME280;10959;51.328;7.322;2023-01-01T03:17:45;98341.78;;;15.35;55.87
21594;BME280;10959;51.328;7.322;2023-01-01T03:20:16;98336.00;;;15.40;55.35
21594;BME280;10959;51.328;7.322;2023-01-01T03:22:45;98339.69;;;15.38;56.83
21594;BME280;10959;51.328;7.322;2023-01-01T03:25:15;98337.97;;;15.37;55.88
21594;BME280;10959;51.328;7.322;2023-01-01T03:27:48;98348.81;;;15.37;55.44
21594;BME280;10959;51.328;7.322;2023-01-01T03:30:18;98354.00;;;15.41;55.61
21594;BME280;10959;51.328;7.322;2023-01-01T03:32:50;98339.69;;;15.38;55.61
21594;BME280;10959;51.328;7.322;2023-01-01T03:35:32;98334.50;;;15.35;55.64
21594;BME280;10959;51.328;7.322;2023-01-01T03:38:03;98343.59;;;15.34;55.28
21594;BME280;10959;51.328;7.322;2023-01-01T03:40:33;98355.34;;;15.35;55.78
21594;BME280;10959;51.328;7.322;2023-01-01T03:43:05;98345.59;;;15.32;55.56
21594;BME280;10959;51.328;7.322;2023-01-01T03:45:36;98351.69;;;15.23;55.77
21594;BME280;10959;51.328;7.322;2023-01-01T03:48:04;98345.34;;;15.35;56.17
21594;BME280;10959;51.328;7.322;2023-01-01T03:50:40;98345.81;;;15.29;55.82
21594;BME280;10959;51.328;7.322;2023-01-01T03:53:18;98344.94;;;15.29;55.63
21594;BME280;10959;51.328;7.322;2023-01-01T03:55:49;98357.69;;;15.40;56.28
21594;BME280;10959;51.328;7.322;2023-01-01T03:58:25;98353.72;;;15.32;56.69
21594;BME280;10959;51.328;7.322;2023-01-01T04:01:05;98338.91;;;15.25;55.87
21594;BME280;10959;51.328;7.322;2023-01-01T04:03:36;98339.91;;;15.35;55.60
21594;BME280;10959;51.328;7.322;2023-01-01T04:06:04;98337.94;;;15.26;55.54
21594;BME280;10959;51.328;7.322;2023-01-01T04:08:31;98355.34;;;15.35;55.13
21594;BME280;10959;51.328;7.322;2023-01-01T04:10:59;98367.03;;;15.35;56.27
21594;BME280;10959;51.328;7.322;2023-01-01T04:13:49;98354.34;;;15.36;56.33
21594;BME280;10959;51.328;7.322;2023-01-01T04:16:17;98365.31;;;15.34;56.94
21594;BME280;10959;51.328;7.322;2023-01-01T04:18:43;98375.94;;;15.37;56.76
21594;BME280;10959;51.328;7.322;2023-01-01T04:21:11;98381.38;;;15.37;57.26
21594;BME280;10959;51.328;7.322;2023-01-01T04:23:37;98396.88;;;15.35;57.00
21594;BME280;10959;51.328;7.322;2023-01-01T04:26:04;98393.94;;;15.38;57.45
21594;BME280;10959;51.328;7.322;2023-01-01T04:28:30;98397.66;;;15.37;56.69
21594;BME280;10959;51.328;7.322;2023-01-01T04:31:00;98388.75;;;15.35;57.37
21594;BME280;10959;51.328;7.322;2023-01-01T04:33:28;98389.50;;;15.37;56.83
21594;BME280;10959;51.328;7.322;2023-01-01T04:35:55;98384.81;;;15.40;57.32
21594;BME280;10959;51.328;7.322;2023-01-01T04:38:21;98373.97;;;15.40;57.65
21594;BME280;10959;51.328;7.322;2023-01-01T04:40:56;98386.75;;;15.26;57.47
21594;BME280;10959;51.328;7.322;2023-01-01T04:43:23;98383.31;;;15.35;57.18
21594;BME280;10959;51.328;7.322;2023-01-01T04:45:54;98382.31;;;15.25;57.70
21594;BME280;10959;51.328;7.322;2023-01-01T04:48:20;98384.81;;;15.40;57.52
21594;BME280;10959;51.328;7.322;2023-01-01T04:50:54;98396.34;;;15.30;57.33
21594;BME280;10959;51.328;7.322;2023-01-01T04:53:21;98395.44;;;15.43;57.05
21594;BME280;10959;51.328;7.322;2023-01-01T04:55:47;98375.47;;;15.44;57.07
21594;BME280;10959;51.328;7.322;2023-01-01T04:58:14;98378.91;;;15.46;57.09
21594;BME280;10959;51.328;7.322;2023-01-01T05:00:40;98393.50;;;15.45;57.83
21594;BME280;10959;51.328;7.322;2023-01-01T05:03:07;98397.41;;;15.41;58.14
21594;BME280;10959;51.328;7.322;2023-01-01T05:05:33;98398.28;;;15.41;57.92
21594;BME280;10959;51.328;7.322;2023-01-01T05:08:01;98389.28;;;15.41;57.86
21594;BME280;10959;51.328;7.322;2023-01-01T05:10:28;98404.34;;;15.45;58.13
21594;BME280;10959;51.328;7.322;2023-01-01T05:12:54;98404.34;;;15.45;58.07
21594;BME280;10959;51.328;7.322;2023-01-01T05:15:21;98400.63;;;15.46;58.15
21594;BME280;10959;51.328;7.322;2023-01-01T05:17:47;98409.00;;;15.43;57.49
21594;BME280;10959;51.328;7.322;2023-01-01T05:20:14;98411.97;;;15.40;57.90
21594;BME280;10959;51.328;7.322;2023-01-01T05:22:40;98413.56;;;15.42;58.64
21594;BME280;10959;51.328;7.322;2023-01-01T05:25:08;98409.97;;;15.42;58.30
21594;BME280;10959;51.328;7.322;2023-01-01T05:27:35;98421.19;;;15.37;58.69
21594;BME280;10959;51.328;7.322;2023-01-01T05:30:01;98433.91;;;15.36;58.00
21594;BME280;10959;51.328;7.322;2023-01-01T05:32:28;98434.50;;;15.40;58.63
21594;BME280;10959;51.328;7.322;2023-01-01T05:34:54;98428.97;;;15.42;58.73
21594;BME280;10959;51.328;7.322;2023-01-01T05:37:21;98421.06;;;15.38;58.62
21594;BME280;10959;51.328;7.322;2023-01-01T05:39:47;98433.66;;;15.40;58.53
21594;BME280;10959;51.328;7.322;2023-01-01T05:42:15;98421.31;;;15.35;58.85
21594;BME280;10959;51.328;7.322;2023-01-01T05:44:43;98426.97;;;15.32;58.11
21594;BME280;10959;51.328;7.322;2023-01-01T05:47:09;98423.28;;;15.33;58.27
21594;BME280;10959;51.328;7.322;2023-01-01T05:49:36;98412.63;;;15.30;58.39
21594;BME280;10959;51.328;7.322;2023-01-01T05:52:03;98427.94;;;15.31;57.77
21594;BME280;10959;51.328;7.322;2023-01-01T05:54:30;98427.59;;;15.36;58.33
21594;BME280;10959;51.328;7.322;2023-01-01T05:56:56;98436.50;;;15.38;58.25
21594;BME280;10959;51.328;7.322;2023-01-01T05:59:24;98432.94;;;15.37;58.39
21594;BME280;10959;51.328;7.322;2023-01-01T06:01:51;98435.84;;;15.34;58.74
21594;BME280;10959;51.328;7.322;2023-01-01T06:04:17;98447.81;;;15.32;58.45
21594;BME280;10959;51.328;7.322;2023-01-01T06:06:44;98452.72;;;15.27;58.59
21594;BME280;10959;51.328;7.322;2023-01-01T06:09:10;98459.75;;;15.29;58.70
21594;BME280;10959;51.328;7.322;2023-01-01T06:11:37;98465.19;;;15.29;59.15
21594;BME280;10959;51.328;7.322;2023-01-01T06:14:03;98470.25;;;15.34;59.47
21594;BME280;10959;51.328;7.322;2023-01-01T06:16:32;98481.66;;;15.39;59.25
21594;BME280;10959;51.328;7.322;2023-01-01T06:18:59;98493.59;;;15.36;59.81
21594;BME280;10959;51.328;7.322;2023-01-01T06:21:27;98502.47;;;15.38;59.47
21594;BME280;10959;51.328;7.322;2023-01-01T06:23:55;98495.09;;;15.41;59.94
21594;BME280;10959;51.328;7.322;2023-01-01T06:26:24;98490.63;;;15.40;60.33
21594;BME280;10959;51.328;7.322;2023-01-01T06:28:51;98480.81;;;15.26;60.48
21594;BME280;10959;51.328;7.322;2023-01-01T06:31:19;98476.25;;;15.26;60.32
21594;BME280;10959;51.328;7.322;2023-01-01T06:33:48;98483.88;;;15.21;60.85
21594;BME280;10959;51.328;7.322;2023-01-01T06:36:17;98487.78;;;15.17;60.47
21594;BME280;10959;51.328;7.322;2023-01-01T06:38:45;98479.53;;;15.18;61.22
21594;BME280;10959;51.328;7.322;2023-01-01T06:41:14;98488.25;;;15.11;60.99
21594;BME280;10959;51.328;7.322;2023-01-01T06:43:40;98478.91;;;15.15;61.52
21594;BME280;10959;51.328;7.322;2023-01-01T06:46:13;98494.56;;;14.98;61.78
21594;BME280;10959;51.328;7.322;2023-01-01T06:48:41;98500.59;;;15.15;61.95
21594;BME280;10959;51.328;7.322;2023-01-01T06:51:11;98496.88;;;15.16;61.51
21594;BME280;10959;51.328;7.322;2023-01-01T06:53:38;98504.50;;;15.11;61.63
21594;BME280;10959;51.328;7.322;2023-01-01T06:56:05;98510.91;;;15.10;62.20
21594;BME280;10959;51.328;7.322;2023-01-01T06:58:32;98533.34;;;15.12;62.55
21594;BME280;10959;51.328;7.322;2023-01-01T07:01:04;98520.78;;;15.11;62.11
21594;BME280;10959;51.328;7.322;2023-01-01T07:03:31;98529.47;;;15.03;62.54
21594;BME280;10959;51.328;7.322;2023-01-01T07:05:57;98540.63;;;15.11;62.20
21594;BME280;10959;51.328;7.322;2023-01-01T07:08:25;98534.00;;;15.15;62.17
21594;BME280;10959;51.328;7.322;2023-01-01T07:10:51;98547.69;;;15.14;61.86
21594;BME280;10959;51.328;7.322;2023-01-01T07:13:18;98547.69;;;15.14;61.91
21594;BME280;10959;51.328;7.322;2023-01-01T07:15:44;98536.81;;;15.14;62.10
21594;BME280;10959;51.328;7.322;2023-01-01T07:18:11;98539.84;;;15.22;62.30
21594;BME280;10959;51.328;7.322;2023-01-01T07:20:37;98543.53;;;15.21;61.90
21594;BME280;10959;51.328;7.322;2023-01-01T07:23:04;98544.00;;;15.15;62.45
21594;BME280;10959;51.328;7.322;2023-01-01T07:25:31;98539.31;;;15.17;62.01
21594;BME280;10959;51.328;7.322;2023-01-01T07:27:58;98547.91;;;15.11;62.01
21594;BME280;10959;51.328;7.322;2023-01-01T07:30:24;98556.56;;;15.16;61.96
21594;BME280;10959;51.328;7.322;2023-01-01T07:32:53;98561.97;;;15.16;62.38
21594;BME280;10959;51.328;7.322;2023-01-01T07:35:20;98576.31;;;15.18;62.57
21594;BME280;10959;51.328;7.322;2023-01-01T07:37:46;98582.94;;;15.14;62.53
21594;BME280;10959;51.328;7.322;2023-01-01T07:40:13;98573.72;;;15.16;62.85
21594;BME280;10959;51.328;7.322;2023-01-01T07:42:40;98586.38;;;15.16;63.06
21594;BME280;10959;51.328;7.322;2023-01-01T07:45:09;98596.28;;;15.17;63.35
21594;BME280;10959;51.328;7.322;2023-01-01T07:47:36;98578.94;;;15.07;64.07
21594;BME280;10959;51.328;7.322;2023-01-01T07:50:03;98599.31;;;14.99;64.31
21594;BME280;10959;51.328;7.322;2023-01-01T07:52:30;98589.34;;;15.00;64.64
21594;BME280;10959;51.328;7.322;2023-01-01T07:54:56;98597.13;;;15.04;64.70
21594;BME280;10959;51.328;7.322;2023-01-01T07:57:23;98604.41;;;15.04;64.94
21594;BME280;10959;51.328;7.322;2023-01-01T07:59:50;98609.72;;;15.06;64.82
21594;BME280;10959;51.328;7.322;2023-01-01T08:02:17;98610.63;;;15.06;64.98
21594;BME280;10959;51.328;7.322;2023-01-01T08:04:43;98614.19;;;15.07;64.72
21594;BME280;10959;51.328;7.322;2023-01-01T08:07:10;98638.81;;;15.03;65.23
21594;BME280;10959;51.328;7.322;2023-01-01T08:09:36;98652.25;;;15.05;65.52
21594;BME280;10959;51.328;7.322;2023-01-01T08:12:03;98654.75;;;14.95;66.21
21594;BME280;10959;51.328;7.322;2023-01-01T08:14:30;98651.06;;;14.96;66.61
21594;BME280;10959;51.328;7.322;2023-01-01T08:16:58;98634.81;;;14.96;66.73
21594;BME280;10959;51.328;7.322;2023-01-01T08:19:24;98626.88;;;14.93;67.10
21594;BME280;10959;51.328;7.322;2023-01-01T08:21:51;98628.59;;;14.81;67.47
21594;BME280;10959;51.328;7.322;2023-01-01T08:24:17;98632.94;;;14.84;67.38
21594;BME280;10959;51.328;7.322;2023-01-01T08:26:43;98634.25;;;14.91;67.49
21594;BME280;10959;51.328;7.322;2023-01-01T08:29:13;98648.03;;;14.88;67.35
21594;BME280;10959;51.328;7.322;2023-01-01T08:31:40;98647.25;;;14.86;67.72
21594;BME280;10959;51.328;7.322;2023-01-01T08:34:08;98657.22;;;14.85;67.54
21594;BME280;10959;51.328;7.322;2023-01-01T08:36:35;98638.38;;;14.84;67.79
21594;BME280;10959;51.328;7.322;2023-01-01T08:39:05;98649.44;;;14.81;67.88
21594;BME280;10959;51.328;7.322;2023-01-01T08:41:31;98631.19;;;14.83;67.57
21594;BME280;10959;51.328;7.322;2023-01-01T08:43:58;98625.78;;;14.83;67.58
21594;BME280;10959;51.328;7.322;2023-01-01T08:46:25;98638.25;;;14.85;67.33
21594;BME280;10959;51.328;7.322;2023-01-01T08:48:51;98630.00;;;14.87;67.52
21594;BME280;10959;51.328;7.322;2023-01-01T08:51:19;98644.34;;;14.89;67.01
21594;BME280;10959;51.328;7.322;2023-01-01T08:53:46;98655.94;;;14.91;67.61
21594;BME280;10959;51.328;7.322;2023-01-01T08:56:12;98654.00;;;14.93;67.46
21594;BME280;10959;51.328;7.322;2023-01-01T08:58:41;98670.06;;;14.96;67.33
21594;BME280;10959;51.328;7.322;2023-01-01T09:01:09;98681.63;;;14.98;67.20
21594;BME280;10959;51.328;7.322;2023-01-01T09:03:36;98687.63;;;14.91;67.35
21594;BME280;10959;51.328;7.322;2023-01-01T09:06:03;98690.31;;;14.91;67.27
21594;BME280;10959;51.328;7.322;2023-01-01T09:08:31;98692.16;;;14.90;67.45
21594;BME280;10959;51.328;7.322;2023-01-01T09:10:58;98699.31;;;14.91;67.52
21594;BME280;10959;51.328;7.322;2023-01-01T09:13:25;98691.28;;;14.90;67.73
21594;BME280;10959;51.328;7.322;2023-01-01T09:15:52;98688.25;;;14.94;67.24
21594;BME280;10959;51.328;7.322;2023-01-01T09:18:18;98709.94;;;14.94;67.11
21594;BME280;10959;51.328;7.322;2023-01-01T09:20:45;98718.63;;;14.99;67.25
21594;BME280;10959;51.328;7.322;2023-01-01T09:23:12;98718.63;;;14.99;67.02
21594;BME280;10959;51.328;7.322;2023-01-01T09:25:39;98727.75;;;14.98;67.25
21594;BME280;10959;51.328;7.322;2023-01-01T09:28:07;98716.16;;;14.96;67.51
21594;BME280;10959;51.328;7.322;2023-01-01T09:30:34;98713.00;;;15.02;67.00
21594;BME280;10959;51.328;7.322;2023-01-01T09:33:01;98731.00;;;15.03;67.24
21594;BME280;10959;51.328;7.322;2023-01-01T09:35:29;98743.56;;;15.04;67.74
21594;BME280;10959;51.328;7.322;2023-01-01T09:37:56;98741.66;;;15.07;67.04
21594;BME280;10959;51.328;7.322;2023-01-01T09:40:27;98734.69;;;15.02;67.22
21594;BME280;10959;51.328;7.322;2023-01-01T09:43:05;98735.53;;;14.90;66.95
21594;BME280;10959;51.328;7.322;2023-01-01T09:45:37;98739.69;;;15.09;67.32
21594;BME280;10959;51.328;7.322;2023-01-01T09:48:10;98752.50;;;15.07;67.13
21594;BME280;10959;51.328;7.322;2023-01-01T09:50:39;98747.31;;;15.16;67.11
21594;BME280;10959;51.328;7.322;2023-01-01T09:53:11;98748.38;;;15.14;67.32
21594;BME280;10959;51.328;7.322;2023-01-01T09:55:43;98746.97;;;15.08;67.29
21594;BME280;10959;51.328;7.322;2023-01-01T09:58:14;98742.72;;;15.17;67.06
21594;BME280;10959;51.328;7.322;2023-01-01T10:00:43;98755.22;;;15.19;67.33
21594;BME280;10959;51.328;7.322;2023-01-01T10:03:27;98760.41;;;15.10;67.01
21594;BME280;10959;51.328;7.322;2023-01-01T10:06:03;98763.25;;;15.21;67.13
21594;BME280;10959;51.328;7.322;2023-01-01T10:08:40;98758.78;;;15.20;67.22
21594;BME280;10959;51.328;7.322;2023-01-01T10:11:15;98760.19;;;15.13;67.14
21594;BME280;10959;51.328;7.322;2023-01-01T10:13:45;98760.09;;;15.27;67.41
21594;BME280;10959;51.328;7.322;2023-01-01T10:16:15;98769.25;;;15.26;67.38
21594;BME280;10959;51.328;7.322;2023-01-01T10:18:49;98766.63;;;15.25;67.42
21594;BME280;10959;51.328;7.322;2023-01-01T10:21:20;98772.25;;;15.34;67.37
21594;BME280;10959;51.328;7.322;2023-01-01T10:23:52;98761.09;;;15.26;67.54
21594;BME280;10959;51.328;7.322;2023-01-01T10:26:23;98765.31;;;15.30;67.41
21594;BME280;10959;51.328;7.322;2023-01-01T10:28:57;98760.31;;;15.24;67.56
21594;BME280;10959;51.328;7.322;2023-01-01T10:31:30;98760.31;;;15.24;67.68
21594;BME280;10959;51.328;7.322;2023-01-01T10:33:58;98763.59;;;15.29;68.18
21594;BME280;10959;51.328;7.322;2023-01-01T10:36:26;98760.78;;;15.31;67.82
21594;BME280;10959;51.328;7.322;2023-01-01T10:38:52;98755.78;;;15.37;67.72
21594;BME280;10959;51.328;7.322;2023-01-01T10:41:19;98750.78;;;15.31;67.78
21594;BME280;10959;51.328;7.322;2023-01-01T10:43:46;98741.44;;;15.35;67.67
21594;BME280;10959;51.328;7.322;2023-01-01T10:46:18;98738.97;;;15.32;67.42
21594;BME280;10959;51.328;7.322;2023-01-01T10:49:06;98745.00;;;15.10;68.04
21594;BME280;10959;51.328;7.322;2023-01-01T10:51:37;98742.63;;;15.31;67.58
21594;BME280;10959;51.328;7.322;2023-01-01T10:54:18;98755.09;;;15.21;67.71
21594;BME280;10959;51.328;7.322;2023-01-01T10:56:46;98755.88;;;15.36;67.78
21594;BME280;10959;51.328;7.322;2023-01-01T10:59:32;98746.22;;;15.19;68.01
21594;BME280;10959;51.328;7.322;2023-01-01T11:02:15;98748.38;;;15.14;68.58
21594;BME280;10959;51.328;7.322;2023-01-01T11:04:42;98747.09;;;15.32;68.42
21594;BME280;10959;51.328;7.322;2023-01-01T11:07:17;98734.50;;;15.31;68.32
21594;BME280;10959;51.328;7.322;2023-01-01T11:09:47;98732.97;;;15.40;68.02
21594;BME280;10959;51.328;7.322;2023-01-01T11:12:18;98740.16;;;15.41;67.84
21594;BME280;10959;51.328;7.322;2023-01-01T11:14:49;98742.97;;;15.40;67.55
21594;BME280;10959;51.328;7.322;2023-01-01T11:17:21;98737.00;;;15.34;67.73
21594;BME280;10959;51.328;7.322;2023-01-01T11:19:49;98744.50;;;15.44;68.04
21594;BME280;10959;51.328;7.322;2023-01-01T11:22:37;98756.84;;;15.22;68.35
21594;BME280;10959;51.328;7.322;2023-01-01T11:25:16;98759.25;;;15.27;68.17
21594;BME280;10959;51.328;7.322;2023-01-01T11:27:43;98752.63;;;15.44;68.13
21594;BME280;10959;51.328;7.322;2023-01-01T11:30:19;98769.75;;;15.31;68.02
21594;BME280;10959;51.328;7.322;2023-01-01T11:32:49;98768.34;;;15.38;67.77
21594;BME280;10959;51.328;7.322;2023-01-01T11:35:19;98778.81;;;15.45;67.97
21594;BME280;10959;51.328;7.322;2023-01-01T11:37:47;98784.00;;;15.48;68.17
21594;BME280;10959;51.328;7.322;2023-01-01T11:40:18;98785.53;;;15.52;67.95
21594;BME280;10959;51.328;7.322;2023-01-01T11:42:49;98785.72;;;15.49;67.52
21594;BME280;10959;51.328;7.322;2023-01-01T11:45:19;98790.06;;;15.51;67.65
21594;BME280;10959;51.328;7.322;2023-01-01T11:47:51;98777.06;;;15.44;68.08
21594;BME280;10959;51.328;7.322;2023-01-01T11:50:23;98785.72;;;15.49;67.74
21594;BME280;10959;51.328;7.322;2023-01-01T11:52:51;98794.41;;;15.54;67.62
21594;BME280;10959;51.328;7.322;2023-01-01T11:55:22;98786.50;;;15.51;67.63
21594;BME280;10959;51.328;7.322;2023-01-01T11:57:58;98784.41;;;15.42;67.84
21594;BME280;10959;51.328;7.322;2023-01-01T12:00:30;98783.56;;;15.54;67.79
21594;BME280;10959;51.328;7.322;2023-01-01T12:03:00;98785.31;;;15.55;67.53
21594;BME280;10959;51.328;7.322;2023-01-01T12:05:45;98789.31;;;15.36;67.83
21594;BME280;10959;51.328;7.322;2023-01-01T12:08:18;98796.28;;;15.41;68.14
21594;BME280;10959;51.328;7.322;2023-01-01T12:10:50;98790.41;;;15.47;68.02
21594;BME280;10959;51.328;7.322;2023-01-01T12:13:21;98796.38;;;15.52;68.12
21594;BME280;10959;51.328;7.322;2023-01-01T12:15:55;98784.88;;;15.48;68.06
21594;BME280;10959;51.328;7.322;2023-01-01T12:18:29;98787.91;;;15.44;68.30
21594;BME280;10959;51.328;7.322;2023-01-01T12:21:02;98773.38;;;15.45;67.75
21594;BME280;10959;51.328;7.322;2023-01-01T12:23:31;98766.72;;;15.49;67.90
21594;BME280;10959;51.328;7.322;2023-01-01T12:26:05;98767.72;;;15.48;67.71
21594;BME280;10959;51.328;7.322;2023-01-01T12:28:43;98765.97;;;15.47;67.88
21594;BME280;10959;51.328;7.322;2023-01-01T12:31:20;98762.06;;;15.51;67.86
21594;BME280;10959;51.328;7.322;2023-01-01T12:34:03;98767.38;;;15.40;68.25
21594;BME280;10959;51.328;7.322;2023-01-01T12:36:40;98762.72;;;15.42;67.92
21594;BME280;10959;51.328;7.322;2023-01-01T12:42:30;98763.16;;;15.35;67.97
21594;BME280;10959;51.328;7.322;2023-01-01T12:45:33;98768.44;;;15.24;68.48
21594;BME280;10959;51.328;7.322;2023-01-01T12:48:27;98766.09;;;15.32;68.75
21594;BME280;10959;51.328;7.322;2023-01-01T12:51:06;98766.41;;;15.41;67.95
21594;BME280;10959;51.328;7.322;2023-01-01T12:53:43;98773.38;;;15.45;67.80
21594;BME280;10959;51.328;7.322;2023-01-01T12:56:17;98748.19;;;15.43;67.66
21594;BME280;10959;51.328;7.322;2023-01-01T12:58:51;98755.88;;;15.49;67.95
21594;BME280;10959;51.328;7.322;2023-01-01T13:01:21;98755.13;;;15.60;67.70
21594;BME280;10959;51.328;7.322;2023-01-01T13:03:51;98755.22;;;15.58;67.42
21594;BME280;10959;51.328;7.322;2023-01-01T13:06:23;98759.88;;;15.56;67.16
21594;BME280;10959;51.328;7.322;2023-01-01T13:08:55;98760.09;;;15.53;67.35
21594;BME280;10959;51.328;7.322;2023-01-01T13:11:25;98759.03;;;15.55;67.77
21594;BME280;10959;51.328;7.322;2023-01-01T13:13:52;98762.53;;;15.58;67.67
21594;BME280;10959;51.328;7.322;2023-01-01T13:16:32;98761.41;;;15.34;67.23
21594;BME280;10959;51.328;7.322;2023-01-01T13:19:00;98765.53;;;15.53;67.45